AirNav   Airventure
 
 1582 users online  

6MD6 Um Charles Regional Medical Center Heliport
La Plata, Maryland, USA


FAA INFORMATION EFFECTIVE 20 JULY 2017

Location

FAA Identifier: 6MD6
Lat/Long: 38-31-42.6300N / 076-58-15.5200W
38-31.710500N / 076-58.258667W
38.5285083 / -76.9709778
(estimated)
Elevation: 168 ft. / 51 m (estimated)
Time zone: UTC -4 (UTC -5 during Standard Time)
Zip code: 20646

Heliport Operations

Heliport use: Private use, MEDICAL USE.
Activation date: 03/2007
Control tower: no
ARTCC: WASHINGTON CENTER
FSS: LEESBURG FLIGHT SERVICE STATION
Attendance: UNATNDD
Wind indicator: yes
Segmented circle: no
Lights: ACTVT PERIMETER LGTS - 123.05.

Heliport Communications

WX ASOS at DCA (20 nm N): 132.65 (703-412-8140)

Nearby radio navigation aids

VOR radial/distance  VOR name  Freq  Var
OTTr235/15.0NOTTINGHAM VORTAC113.7010W
ADWr206/17.4ANDREWS VORTAC113.1010W
DCAr180/20.1WASHINGTON VOR/DME111.0009W
BRVr066/21.3BROOKE VORTAC114.5009W
PXTr308/30.5PATUXENT VORTAC117.6010W
AMLr144/33.6ARMEL VOR/DME113.5008W

 
NDB name  Hdg/Dist  Freq  Var  ID
DAVEE150/10.322309WDAA -.. .- .-
OXONN180/14.533211WDCA -.. -.-. .-
GEORGETOWN172/25.132309WGTN --. - -.
SHANNON065/27.523710WEZF . --.. ..-.
PATUXENT309/30.440010WNHK -. .... -.-

Heliport Services

Runway Information

Helipad H1

Dimensions: 42 x 42 ft. / 13 x 13 m
Surface: concrete
Runway edge lights: PERI
Latitude: 38-31.710500N
Longitude: 076-58.258667W
Elevation: 168.0 ft.
Traffic pattern: leftleft

Heliport Ownership and Management from official FAA records

Ownership: Privately-owned
Owner: UM CHARLES REGIONAL MEDICAL CENTER
701 E. CHARLES ST.
LA PLATA, MD 20646
Phone 301-609-4000
Manager: LAURI CRESS
701 E. CHARLES ST.
LA PLATA, MD 20646
Phone 301-609-4453
DIRECTOR OF FACILITIES.

Instrument Procedures

There are no published instrument procedures at 6MD6.

Some nearby airports with instrument procedures:

2W5 - Maryland Airport (6 nm NW)
KVKX - Potomac Airfield (13 nm N)
W32 - Washington Executive Airport/Hyde Field (13 nm N)
KDAA - Davison Army Airfield (15 nm NW)
KNYG - Quantico Marine Corps Airfield / Turner Field (16 nm W)
KADW - Joint Base Andrews (18 nm N)
KDCA - Ronald Reagan Washington National Airport (20 nm N)
 
Loc | Ops | Rwys | IFR | FBO | Links
Com | Nav | Svcs | Stats | Notes


 
Area around 6MD6 (Um Charles Regional Medical Center Heliport)
 
Road maps at: MapQuest Bing Google
 
Aerial photo
No photo
 
Sectional chart

 
Airport distance calculator
Flying to Um Charles Regional Medical Center Heliport? Find the distance to fly.

From to 6MD6

Sunrise and sunset
Times for 20-Jul-2017
 Local
(UTC-4)
 Zulu
(UTC)
Morning civil twilight05:3009:30
Sunrise06:0110:01
Sunset20:2800:28
Evening civil twilight20:5800:58

Current date and time
Zulu (UTC)  20-Jul-2017 17:25:53
Local (UTC-4)  20-Jul-2017 13:25:53
 
METAR
KVKX 
13nm N 
SuperAWOS
201655Z AUTO 26008KT 10SM 34/21 A2999
KDAA 
15nm NW 
201658Z AUTO 30007KT 10SM CLR 35/21 A3000 RMK AO2 SLP161 T03490209
KNYG 
15nm W 
201656Z 17006KT 10SM FEW040 BKN250 33/26 A3001 RMK AO2 SLP163 T03280256
KADW 
18nm N 
201658Z AUTO 27007KT 10SM FEW150 34/21 A3000 RMK AO2 SLP163 T03440206
KDCA 
20nm N 
201652Z VRB06KT 10SM FEW050 SCT250 35/21 A3000 RMK AO2 SLP158 T03500211
K2W6 
24nm SE 
201657Z AUTO 26004KT 10SM CLR A3002 RMK AO1
KRMN 
24nm W 
201655Z AUTO 28007KT 10SM CLR 34/22 A3005 RMK AO2 T03370221
TAF
KDAA 
15nm NW 
200900Z 2009/2115 25009KT 9999 FEW060 QNH2990INS BECMG 2020/2021 27009KT 9999 SCT060 QNH2984INS WND 32009KT AFT 2109 TX36/2018Z TN22/2009Z
KNYG 
15nm W 
2015/2115 VRB06KT 9999 SCT060 BKN250 542509 523109 524001 QNH2989INS BECMG 2109/2111 30007KT FEW060 SCT250 500000 QNH2993INS T36/2021Z T23/2109Z
KADW 
18nm N 
200900Z 2009/2115 25009KT 9999 FEW060 QNH2990INS BECMG 2020/2021 27009KT 9999 SCT060 QNH2984INS WND 33009KT AFT 2109 TX35/2018Z TN23/2009Z
KDCA 
20nm N 
201500Z 2015/2112 30007KT P6SM SCT250 FM201700 27006KT P6SM BKN060 BKN250 FM202000 23007KT P6SM BKN060 BKN250 FM202200 21007KT P6SM SCT060 FM210500 VRB03KT P6SM SCT060
NOTAMs
Click for the latest NOTAMs
NOTAMs are issued by the DoD/FAA and will open in a separate window not controlled by AirNav.

 

 
 

Would you like to see your business listed on this page?

 If your business provides an interesting product or service to pilots, flight crews, aircraft, or users of the Um Charles Regional Medical Center Heliport, you should consider listing it here.  To start the listing process, click on the button below
 
Add a business
 

Other Pages about Um Charles Regional Medical Center Heliport

Update a link
 
Copyright © AirNav, LLC. All rights reserved. Privacy Policy  Contact